Alexandria, Louisiana
Current Conditions -  °F | °C
As of 12:53 AM on Sunday 23 Nov 2014 (Local Time) from KAEX Reporting Station
Light Rain Light Rain  
Wind Chill: 63°   Ceiling: 800
Heat Index: 63°   Visibility: 8mi
Dew Point: 61°   Wind: 16mph
Humidity: 93%   Direction: 140°SE
Pressure: 29.76"   Gusts: 25mph
Location:  31.31°N, 92.44°W
Report Text: KAEX 230653Z 14014G22KT 8SM -RA OVC008 17/16 A2976 RMK AO2 SLP081 P0000 T01720161
Loading
Personal Weather Stations






























Interactive Weather Map New forecast layout! Learn more

10-Day Weather Forecast

Advertisements
Track Severe Weather on mobile